sensor_id;sensor_type;location;lat;lon;timestamp;temperature;humidity
70421;SHT31;57848;51.938;15.520;2022-09-09T00:00:16;15.47;90.78
70421;SHT31;57848;51.938;15.520;2022-09-09T00:02:49;15.39;90.97
70421;SHT31;57848;51.938;15.520;2022-09-09T00:05:26;15.31;91.10
70421;SHT31;57848;51.938;15.520;2022-09-09T00:07:55;15.33;90.98
70421;SHT31;57848;51.938;15.520;2022-09-09T00:10:39;15.30;91.06
70421;SHT31;57848;51.938;15.520;2022-09-09T00:13:22;15.30;91.24
70421;SHT31;57848;51.938;15.520;2022-09-09T00:19:00;15.34;90.59
70421;SHT31;57848;51.938;15.520;2022-09-09T00:21:44;15.31;90.75
70421;SHT31;57848;51.938;15.520;2022-09-09T00:24:27;15.30;90.94
70421;SHT31;57848;51.938;15.520;2022-09-09T00:26:59;15.39;90.40
70421;SHT31;57848;51.938;15.520;2022-09-09T00:29:51;15.34;90.66
70421;SHT31;57848;51.938;15.520;2022-09-09T00:32:20;15.36;90.42
70421;SHT31;57848;51.938;15.520;2022-09-09T00:35:01;15.29;90.82
70421;SHT31;57848;51.938;15.520;2022-09-09T00:37:28;15.34;90.52
70421;SHT31;57848;51.938;15.520;2022-09-09T00:39:59;15.29;90.73
70421;SHT31;57848;51.938;15.520;2022-09-09T00:42:41;15.26;90.59
70421;SHT31;57848;51.938;15.520;2022-09-09T00:45:35;15.27;90.56
70421;SHT31;57848;51.938;15.520;2022-09-09T00:48:09;15.24;90.67
70421;SHT31;57848;51.938;15.520;2022-09-09T00:50:57;15.40;90.14
70421;SHT31;57848;51.938;15.520;2022-09-09T00:53:42;15.43;89.83
70421;SHT31;57848;51.938;15.520;2022-09-09T00:56:16;15.37;90.60
70421;SHT31;57848;51.938;15.520;2022-09-09T01:01:36;15.34;90.45
70421;SHT31;57848;51.938;15.520;2022-09-09T01:04:11;15.29;90.66
70421;SHT31;57848;51.938;15.520;2022-09-09T01:06:41;15.27;90.59
70421;SHT31;57848;51.938;15.520;2022-09-09T01:09:22;15.20;90.71
70421;SHT31;57848;51.938;15.520;2022-09-09T01:12:03;15.22;91.32
70421;SHT31;57848;51.938;15.520;2022-09-09T01:17:11;15.17;90.86
70421;SHT31;57848;51.938;15.520;2022-09-09T01:19:59;15.17;90.84
70421;SHT31;57848;51.938;15.520;2022-09-09T01:25:20;15.06;90.92
70421;SHT31;57848;51.938;15.520;2022-09-09T01:28:16;15.04;90.78
70421;SHT31;57848;51.938;15.520;2022-09-09T01:30:44;15.04;90.69
70421;SHT31;57848;51.938;15.520;2022-09-09T01:33:17;15.00;90.96
70421;SHT31;57848;51.938;15.520;2022-09-09T01:35:52;14.92;90.98
70421;SHT31;57848;51.938;15.520;2022-09-09T01:38:25;14.90;90.82
70421;SHT31;57848;51.938;15.520;2022-09-09T01:40:52;14.92;91.04
70421;SHT31;57848;51.938;15.520;2022-09-09T01:43:22;14.85;91.19
70421;SHT31;57848;51.938;15.520;2022-09-09T01:45:51;14.86;91.13
70421;SHT31;57848;51.938;15.520;2022-09-09T01:48:18;14.83;91.14
70421;SHT31;57848;51.938;15.520;2022-09-09T01:50:50;14.72;91.31
70421;SHT31;57848;51.938;15.520;2022-09-09T01:53:17;14.78;91.21
70421;SHT31;57848;51.938;15.520;2022-09-09T01:56:04;14.69;91.29
70421;SHT31;57848;51.938;15.520;2022-09-09T01:59:03;14.67;91.44
70421;SHT31;57848;51.938;15.520;2022-09-09T02:01:58;14.65;91.31
70421;SHT31;57848;51.938;15.520;2022-09-09T02:04:41;14.62;91.69
70421;SHT31;57848;51.938;15.520;2022-09-09T02:10:10;14.57;91.23
70421;SHT31;57848;51.938;15.520;2022-09-09T02:12:45;14.46;91.63
70421;SHT31;57848;51.938;15.520;2022-09-09T02:15:19;14.46;91.86
70421;SHT31;57848;51.938;15.520;2022-09-09T02:17:50;14.37;92.01
70421;SHT31;57848;51.938;15.520;2022-09-09T02:20:18;14.34;92.02
70421;SHT31;57848;51.938;15.520;2022-09-09T02:22:50;14.38;91.85
70421;SHT31;57848;51.938;15.520;2022-09-09T02:25:20;14.32;91.81
70421;SHT31;57848;51.938;15.520;2022-09-09T02:27:49;14.32;91.69
70421;SHT31;57848;51.938;15.520;2022-09-09T02:30:16;14.27;92.03
70421;SHT31;57848;51.938;15.520;2022-09-09T02:32:50;14.30;91.67
70421;SHT31;57848;51.938;15.520;2022-09-09T02:35:21;14.25;92.06
70421;SHT31;57848;51.938;15.520;2022-09-09T02:37:51;14.21;92.10
70421;SHT31;57848;51.938;15.520;2022-09-09T02:40:18;14.17;92.15
70421;SHT31;57848;51.938;15.520;2022-09-09T02:42:54;14.14;92.10
70421;SHT31;57848;51.938;15.520;2022-09-09T02:45:23;14.09;92.15
70421;SHT31;57848;51.938;15.520;2022-09-09T02:48:09;14.07;91.91
70421;SHT31;57848;51.938;15.520;2022-09-09T02:50:54;14.13;91.90
70421;SHT31;57848;51.938;15.520;2022-09-09T02:53:33;14.03;91.77
70421;SHT31;57848;51.938;15.520;2022-09-09T02:56:15;14.03;91.80
70421;SHT31;57848;51.938;15.520;2022-09-09T02:58:44;14.00;91.98
70421;SHT31;57848;51.938;15.520;2022-09-09T03:01:10;13.99;92.00
70421;SHT31;57848;51.938;15.520;2022-09-09T03:03:36;13.97;92.33
70421;SHT31;57848;51.938;15.520;2022-09-09T03:06:06;13.91;92.41
70421;SHT31;57848;51.938;15.520;2022-09-09T03:08:31;13.89;92.33
70421;SHT31;57848;51.938;15.520;2022-09-09T03:10:59;13.87;92.55
70421;SHT31;57848;51.938;15.520;2022-09-09T03:13:27;13.90;92.23
70421;SHT31;57848;51.938;15.520;2022-09-09T03:15:52;13.86;92.31
70421;SHT31;57848;51.938;15.520;2022-09-09T03:18:20;13.83;92.51
70421;SHT31;57848;51.938;15.520;2022-09-09T03:20:49;13.79;92.23
70421;SHT31;57848;51.938;15.520;2022-09-09T03:23:15;13.77;92.25
70421;SHT31;57848;51.938;15.520;2022-09-09T03:25:46;13.77;92.33
70421;SHT31;57848;51.938;15.520;2022-09-09T03:28:12;13.74;92.29
70421;SHT31;57848;51.938;15.520;2022-09-09T03:30:37;13.76;92.04
70421;SHT31;57848;51.938;15.520;2022-09-09T03:33:03;13.74;92.27
70421;SHT31;57848;51.938;15.520;2022-09-09T03:35:31;13.67;92.35
70421;SHT31;57848;51.938;15.520;2022-09-09T03:37:57;13.67;92.42
70421;SHT31;57848;51.938;15.520;2022-09-09T03:40:22;13.66;92.39
70421;SHT31;57848;51.938;15.520;2022-09-09T03:42:47;13.66;92.59
70421;SHT31;57848;51.938;15.520;2022-09-09T03:45:15;13.63;92.46
70421;SHT31;57848;51.938;15.520;2022-09-09T03:47:42;13.63;92.63
70421;SHT31;57848;51.938;15.520;2022-09-09T03:50:08;13.63;92.70
70421;SHT31;57848;51.938;15.520;2022-09-09T03:52:38;13.63;92.39
70421;SHT31;57848;51.938;15.520;2022-09-09T03:55:07;13.63;92.23
70421;SHT31;57848;51.938;15.520;2022-09-09T03:57:34;13.66;91.90
70421;SHT31;57848;51.938;15.520;2022-09-09T04:00:03;13.63;92.16
70421;SHT31;57848;51.938;15.520;2022-09-09T04:02:31;13.63;92.21
70421;SHT31;57848;51.938;15.520;2022-09-09T04:04:56;13.67;92.43
70421;SHT31;57848;51.938;15.520;2022-09-09T04:07:21;13.63;92.44
70421;SHT31;57848;51.938;15.520;2022-09-09T04:09:47;13.60;92.24
70421;SHT31;57848;51.938;15.520;2022-09-09T04:12:13;13.69;91.99
70421;SHT31;57848;51.938;15.520;2022-09-09T04:14:39;13.66;91.86
70421;SHT31;57848;51.938;15.520;2022-09-09T04:17:05;13.53;92.41
70421;SHT31;57848;51.938;15.520;2022-09-09T04:19:32;13.56;92.45
70421;SHT31;57848;51.938;15.520;2022-09-09T04:21:57;13.52;92.46
70421;SHT31;57848;51.938;15.520;2022-09-09T04:24:23;13.51;92.60
70421;SHT31;57848;51.938;15.520;2022-09-09T04:26:49;13.52;92.31
70421;SHT31;57848;51.938;15.520;2022-09-09T04:29:15;13.49;92.43
70421;SHT31;57848;51.938;15.520;2022-09-09T04:31:40;13.49;92.64
70421;SHT31;57848;51.938;15.520;2022-09-09T04:34:11;13.48;92.50
70421;SHT31;57848;51.938;15.520;2022-09-09T04:36:36;13.51;92.06
70421;SHT31;57848;51.938;15.520;2022-09-09T04:39:04;13.58;92.06
70421;SHT31;57848;51.938;15.520;2022-09-09T04:41:30;13.48;92.36
70421;SHT31;57848;51.938;15.520;2022-09-09T04:43:56;13.52;92.16
70421;SHT31;57848;51.938;15.520;2022-09-09T04:46:22;13.52;91.91
70421;SHT31;57848;51.938;15.520;2022-09-09T04:48:50;13.59;91.57
70421;SHT31;57848;51.938;15.520;2022-09-09T04:51:17;13.51;92.11
70421;SHT31;57848;51.938;15.520;2022-09-09T04:53:45;13.45;92.30
70421;SHT31;57848;51.938;15.520;2022-09-09T04:56:14;13.48;92.16
70421;SHT31;57848;51.938;15.520;2022-09-09T04:58:45;13.46;92.46
70421;SHT31;57848;51.938;15.520;2022-09-09T05:01:14;13.46;92.40
70421;SHT31;57848;51.938;15.520;2022-09-09T05:03:42;13.52;92.14
70421;SHT31;57848;51.938;15.520;2022-09-09T05:06:14;13.58;91.96
70421;SHT31;57848;51.938;15.520;2022-09-09T05:08:41;13.56;91.95
70421;SHT31;57848;51.938;15.520;2022-09-09T05:11:18;13.55;91.78
70421;SHT31;57848;51.938;15.520;2022-09-09T05:13:45;13.53;92.01
70421;SHT31;57848;51.938;15.520;2022-09-09T05:16:11;13.63;91.59
70421;SHT31;57848;51.938;15.520;2022-09-09T05:18:40;13.62;91.68
70421;SHT31;57848;51.938;15.520;2022-09-09T05:21:07;13.58;91.82
70421;SHT31;57848;51.938;15.520;2022-09-09T05:23:33;13.69;91.09
70421;SHT31;57848;51.938;15.520;2022-09-09T05:25:59;13.59;91.28
70421;SHT31;57848;51.938;15.520;2022-09-09T05:28:25;13.70;90.45
70421;SHT31;57848;51.938;15.520;2022-09-09T05:30:59;13.77;90.65
70421;SHT31;57848;51.938;15.520;2022-09-09T05:33:27;13.74;90.74
70421;SHT31;57848;51.938;15.520;2022-09-09T05:36:13;13.83;90.63
70421;SHT31;57848;51.938;15.520;2022-09-09T05:38:39;13.87;90.19
70421;SHT31;57848;51.938;15.520;2022-09-09T05:41:06;13.97;89.90
70421;SHT31;57848;51.938;15.520;2022-09-09T05:43:32;13.97;89.79
70421;SHT31;57848;51.938;15.520;2022-09-09T05:46:03;13.96;89.89
70421;SHT31;57848;51.938;15.520;2022-09-09T05:48:31;14.06;89.66
70421;SHT31;57848;51.938;15.520;2022-09-09T05:50:57;14.11;89.67
70421;SHT31;57848;51.938;15.520;2022-09-09T05:53:23;14.10;89.44
70421;SHT31;57848;51.938;15.520;2022-09-09T05:55:48;14.27;89.62
70421;SHT31;57848;51.938;15.520;2022-09-09T05:58:14;14.32;88.80
70421;SHT31;57848;51.938;15.520;2022-09-09T06:00:40;14.37;88.67
70421;SHT31;57848;51.938;15.520;2022-09-09T06:03:06;14.48;87.47
70421;SHT31;57848;51.938;15.520;2022-09-09T06:05:31;14.54;87.88
70421;SHT31;57848;51.938;15.520;2022-09-09T06:07:58;14.55;88.24
70421;SHT31;57848;51.938;15.520;2022-09-09T06:10:24;14.55;88.13
70421;SHT31;57848;51.938;15.520;2022-09-09T06:12:52;14.65;88.07
70421;SHT31;57848;51.938;15.520;2022-09-09T06:15:18;14.73;88.12
70421;SHT31;57848;51.938;15.520;2022-09-09T06:17:43;14.78;87.42
70421;SHT31;57848;51.938;15.520;2022-09-09T06:20:11;14.85;87.79
70421;SHT31;57848;51.938;15.520;2022-09-09T06:22:39;14.93;87.50
70421;SHT31;57848;51.938;15.520;2022-09-09T06:25:07;14.98;87.38
70421;SHT31;57848;51.938;15.520;2022-09-09T06:27:33;15.11;86.08
70421;SHT31;57848;51.938;15.520;2022-09-09T06:29:58;15.17;86.74
70421;SHT31;57848;51.938;15.520;2022-09-09T06:32:23;15.24;86.53
70421;SHT31;57848;51.938;15.520;2022-09-09T06:34:49;15.31;85.88
70421;SHT31;57848;51.938;15.520;2022-09-09T06:37:14;15.36;86.04
70421;SHT31;57848;51.938;15.520;2022-09-09T06:39:45;15.33;86.17
70421;SHT31;57848;51.938;15.520;2022-09-09T06:42:10;15.41;85.42
70421;SHT31;57848;51.938;15.520;2022-09-09T06:44:55;15.51;86.01
70421;SHT31;57848;51.938;15.520;2022-09-09T06:47:31;15.55;85.23
70421;SHT31;57848;51.938;15.520;2022-09-09T06:49:58;15.58;84.92
70421;SHT31;57848;51.938;15.520;2022-09-09T06:52:24;15.60;84.99
70421;SHT31;57848;51.938;15.520;2022-09-09T06:54:50;15.58;85.12
70421;SHT31;57848;51.938;15.520;2022-09-09T06:57:16;15.55;85.62
70421;SHT31;57848;51.938;15.520;2022-09-09T06:59:41;15.61;85.63
70421;SHT31;57848;51.938;15.520;2022-09-09T07:02:07;15.67;85.49
70421;SHT31;57848;51.938;15.520;2022-09-09T07:04:33;15.70;85.18
70421;SHT31;57848;51.938;15.520;2022-09-09T07:06:58;15.78;85.24
70421;SHT31;57848;51.938;15.520;2022-09-09T07:09:24;15.94;85.39
70421;SHT31;57848;51.938;15.520;2022-09-09T07:11:51;16.04;84.74
70421;SHT31;57848;51.938;15.520;2022-09-09T07:14:19;16.16;84.15
70421;SHT31;57848;51.938;15.520;2022-09-09T07:16:47;16.33;83.92
70421;SHT31;57848;51.938;15.520;2022-09-09T07:19:14;16.49;83.07
70421;SHT31;57848;51.938;15.520;2022-09-09T07:21:41;16.64;82.74
70421;SHT31;57848;51.938;15.520;2022-09-09T07:24:07;16.74;82.86
70421;SHT31;57848;51.938;15.520;2022-09-09T07:26:35;16.88;82.36
70421;SHT31;57848;51.938;15.520;2022-09-09T07:29:01;17.11;81.33
70421;SHT31;57848;51.938;15.520;2022-09-09T07:31:34;17.31;81.31
70421;SHT31;57848;51.938;15.520;2022-09-09T07:34:00;17.48;81.15
70421;SHT31;57848;51.938;15.520;2022-09-09T07:36:29;17.69;80.27
70421;SHT31;57848;51.938;15.520;2022-09-09T07:38:58;17.85;78.40
70421;SHT31;57848;51.938;15.520;2022-09-09T07:41:26;18.00;77.40
70421;SHT31;57848;51.938;15.520;2022-09-09T07:43:52;18.13;76.74
70421;SHT31;57848;51.938;15.520;2022-09-09T07:46:24;18.10;76.16
70421;SHT31;57848;51.938;15.520;2022-09-09T07:48:53;18.08;77.14
70421;SHT31;57848;51.938;15.520;2022-09-09T07:51:34;18.17;76.49
70421;SHT31;57848;51.938;15.520;2022-09-09T07:54:02;18.24;77.71
70421;SHT31;57848;51.938;15.520;2022-09-09T07:56:30;18.18;78.15
70421;SHT31;57848;51.938;15.520;2022-09-09T07:58:56;18.21;77.99
70421;SHT31;57848;51.938;15.520;2022-09-09T08:01:25;18.24;78.39
70421;SHT31;57848;51.938;15.520;2022-09-09T08:04:00;18.20;78.33
70421;SHT31;57848;51.938;15.520;2022-09-09T08:06:29;18.20;77.00
70421;SHT31;57848;51.938;15.520;2022-09-09T08:08:54;18.31;77.48
70421;SHT31;57848;51.938;15.520;2022-09-09T08:11:22;18.35;77.75
70421;SHT31;57848;51.938;15.520;2022-09-09T08:13:49;18.47;77.25
70421;SHT31;57848;51.938;15.520;2022-09-09T08:16:23;18.57;76.44
70421;SHT31;57848;51.938;15.520;2022-09-09T08:18:50;18.61;77.01
70421;SHT31;57848;51.938;15.520;2022-09-09T08:21:19;18.69;74.79
70421;SHT31;57848;51.938;15.520;2022-09-09T08:23:47;18.75;75.88
70421;SHT31;57848;51.938;15.520;2022-09-09T08:26:16;18.78;75.41
70421;SHT31;57848;51.938;15.520;2022-09-09T08:28:43;18.82;76.14
70421;SHT31;57848;51.938;15.520;2022-09-09T08:31:36;18.89;76.39
70421;SHT31;57848;51.938;15.520;2022-09-09T08:34:03;18.91;76.78
70421;SHT31;57848;51.938;15.520;2022-09-09T08:36:31;18.95;75.93
70421;SHT31;57848;51.938;15.520;2022-09-09T08:38:58;18.96;76.63
70421;SHT31;57848;51.938;15.520;2022-09-09T08:44:15;19.02;74.61
70421;SHT31;57848;51.938;15.520;2022-09-09T08:46:58;19.10;74.45
70421;SHT31;57848;51.938;15.520;2022-09-09T08:52:22;19.03;74.15
70421;SHT31;57848;51.938;15.520;2022-09-09T08:54:48;19.03;75.39
70421;SHT31;57848;51.938;15.520;2022-09-09T08:57:20;19.06;75.00
70421;SHT31;57848;51.938;15.520;2022-09-09T08:59:46;19.15;76.07
70421;SHT31;57848;51.938;15.520;2022-09-09T09:02:25;19.20;74.93
70421;SHT31;57848;51.938;15.520;2022-09-09T09:05:04;19.23;74.49
70421;SHT31;57848;51.938;15.520;2022-09-09T09:12:53;19.54;72.41
70421;SHT31;57848;51.938;15.520;2022-09-09T09:15:26;19.63;71.89
70421;SHT31;57848;51.938;15.520;2022-09-09T09:17:55;19.73;70.24
70421;SHT31;57848;51.938;15.520;2022-09-09T09:20:29;19.81;70.17
70421;SHT31;57848;51.938;15.520;2022-09-09T09:23:00;19.89;71.26
70421;SHT31;57848;51.938;15.520;2022-09-09T09:25:38;20.06;69.84
70421;SHT31;57848;51.938;15.520;2022-09-09T09:28:25;20.15;70.08
70421;SHT31;57848;51.938;15.520;2022-09-09T09:31:05;20.26;69.38
70421;SHT31;57848;51.938;15.520;2022-09-09T09:33:49;20.24;68.49
70421;SHT31;57848;51.938;15.520;2022-09-09T09:36:16;20.28;67.87
70421;SHT31;57848;51.938;15.520;2022-09-09T09:38:54;20.36;68.26
70421;SHT31;57848;51.938;15.520;2022-09-09T09:41:40;20.45;68.77
70421;SHT31;57848;51.938;15.520;2022-09-09T09:44:27;20.59;68.33
70421;SHT31;57848;51.938;15.520;2022-09-09T09:47:10;20.88;67.50
70421;SHT31;57848;51.938;15.520;2022-09-09T09:49:36;21.25;66.52
70421;SHT31;57848;51.938;15.520;2022-09-09T09:52:06;22.47;61.94
70421;SHT31;57848;51.938;15.520;2022-09-09T09:54:37;24.01;58.26
70421;SHT31;57848;51.938;15.520;2022-09-09T09:57:14;25.13;54.47
70421;SHT31;57848;51.938;15.520;2022-09-09T09:59:43;26.19;52.70
70421;SHT31;57848;51.938;15.520;2022-09-09T10:02:24;26.54;50.15
70421;SHT31;57848;51.938;15.520;2022-09-09T10:05:26;26.92;48.21
70421;SHT31;57848;51.938;15.520;2022-09-09T10:08:10;27.86;47.17
70421;SHT31;57848;51.938;15.520;2022-09-09T10:17:07;29.97;41.62
70421;SHT31;57848;51.938;15.520;2022-09-09T10:19:36;29.80;42.52
70421;SHT31;57848;51.938;15.520;2022-09-09T10:25:10;29.86;41.98
70421;SHT31;57848;51.938;15.520;2022-09-09T10:28:04;29.65;41.41
70421;SHT31;57848;51.938;15.520;2022-09-09T10:30:58;29.81;41.47
70421;SHT31;57848;51.938;15.520;2022-09-09T10:33:39;30.62;40.73
70421;SHT31;57848;51.938;15.520;2022-09-09T10:36:25;30.84;38.49
70421;SHT31;57848;51.938;15.520;2022-09-09T10:39:15;29.78;41.17
70421;SHT31;57848;51.938;15.520;2022-09-09T10:42:05;29.92;42.48
70421;SHT31;57848;51.938;15.520;2022-09-09T10:44:53;29.74;41.96
70421;SHT31;57848;51.938;15.520;2022-09-09T10:47:44;28.58;43.64
70421;SHT31;57848;51.938;15.520;2022-09-09T10:56:03;29.47;41.08
70421;SHT31;57848;51.938;15.520;2022-09-09T11:01:27;30.52;39.24
70421;SHT31;57848;51.938;15.520;2022-09-09T11:03:57;31.37;38.07
70421;SHT31;57848;51.938;15.520;2022-09-09T11:06:32;31.73;37.57
70421;SHT31;57848;51.938;15.520;2022-09-09T11:09:02;32.21;35.51
70421;SHT31;57848;51.938;15.520;2022-09-09T11:11:39;32.38;35.65
70421;SHT31;57848;51.938;15.520;2022-09-09T11:16:53;28.74;41.65
70421;SHT31;57848;51.938;15.520;2022-09-09T11:24:58;26.70;46.55
70421;SHT31;57848;51.938;15.520;2022-09-09T11:27:58;27.86;44.04
70421;SHT31;57848;51.938;15.520;2022-09-09T11:31:03;29.85;39.46
70421;SHT31;57848;51.938;15.520;2022-09-09T11:33:57;31.72;37.22
70421;SHT31;57848;51.938;15.520;2022-09-09T11:41:36;31.69;36.39
70421;SHT31;57848;51.938;15.520;2022-09-09T11:44:10;31.22;37.22
70421;SHT31;57848;51.938;15.520;2022-09-09T11:46:38;31.12;37.51
70421;SHT31;57848;51.938;15.520;2022-09-09T11:49:05;30.11;38.88
70421;SHT31;57848;51.938;15.520;2022-09-09T11:51:33;28.74;41.41
70421;SHT31;57848;51.938;15.520;2022-09-09T11:54:00;28.00;43.09
70421;SHT31;57848;51.938;15.520;2022-09-09T11:56:32;26.88;44.43
70421;SHT31;57848;51.938;15.520;2022-09-09T11:59:06;26.12;46.81
70421;SHT31;57848;51.938;15.520;2022-09-09T12:01:44;25.74;47.61
70421;SHT31;57848;51.938;15.520;2022-09-09T12:04:17;25.13;49.70
70421;SHT31;57848;51.938;15.520;2022-09-09T12:06:46;24.90;50.63
70421;SHT31;57848;51.938;15.520;2022-09-09T12:09:33;24.48;51.33
70421;SHT31;57848;51.938;15.520;2022-09-09T12:14:43;23.90;53.10
70421;SHT31;57848;51.938;15.520;2022-09-09T12:17:30;23.80;52.75
70421;SHT31;57848;51.938;15.520;2022-09-09T12:20:15;23.63;53.16
70421;SHT31;57848;51.938;15.520;2022-09-09T12:23:06;23.24;55.42
70421;SHT31;57848;51.938;15.520;2022-09-09T12:25:53;23.13;54.93
70421;SHT31;57848;51.938;15.520;2022-09-09T12:28:23;23.02;54.91
70421;SHT31;57848;51.938;15.520;2022-09-09T12:31:02;22.90;56.04
70421;SHT31;57848;51.938;15.520;2022-09-09T12:33:40;22.82;58.22
70421;SHT31;57848;51.938;15.520;2022-09-09T12:36:14;22.61;58.48
70421;SHT31;57848;51.938;15.520;2022-09-09T12:38:42;22.55;62.79
70421;SHT31;57848;51.938;15.520;2022-09-09T12:41:19;22.39;61.14
70421;SHT31;57848;51.938;15.520;2022-09-09T12:43:44;22.20;63.99
70421;SHT31;57848;51.938;15.520;2022-09-09T12:46:18;21.96;66.17
70421;SHT31;57848;51.938;15.520;2022-09-09T12:48:47;21.92;68.25
70421;SHT31;57848;51.938;15.520;2022-09-09T12:51:32;21.92;67.06
70421;SHT31;57848;51.938;15.520;2022-09-09T12:53:59;21.97;66.73
70421;SHT31;57848;51.938;15.520;2022-09-09T12:56:26;22.09;70.07
70421;SHT31;57848;51.938;15.520;2022-09-09T12:58:53;22.21;67.25
70421;SHT31;57848;51.938;15.520;2022-09-09T13:01:25;22.25;67.74
70421;SHT31;57848;51.938;15.520;2022-09-09T13:03:51;22.09;67.63
70421;SHT31;57848;51.938;15.520;2022-09-09T13:06:31;22.18;67.88
70421;SHT31;57848;51.938;15.520;2022-09-09T13:08:58;22.20;65.34
70421;SHT31;57848;51.938;15.520;2022-09-09T13:11:28;22.41;67.08
70421;SHT31;57848;51.938;15.520;2022-09-09T13:13:56;22.48;66.06
70421;SHT31;57848;51.938;15.520;2022-09-09T13:16:29;22.74;65.36
70421;SHT31;57848;51.938;15.520;2022-09-09T13:19:07;22.68;63.96
70421;SHT31;57848;51.938;15.520;2022-09-09T13:21:39;22.61;66.55
70421;SHT31;57848;51.938;15.520;2022-09-09T13:24:28;22.33;64.66
70421;SHT31;57848;51.938;15.520;2022-09-09T13:27:02;22.43;65.77
70421;SHT31;57848;51.938;15.520;2022-09-09T13:29:29;22.57;66.91
70421;SHT31;57848;51.938;15.520;2022-09-09T13:32:03;22.45;67.22
70421;SHT31;57848;51.938;15.520;2022-09-09T13:34:32;22.62;66.35
70421;SHT31;57848;51.938;15.520;2022-09-09T13:37:02;22.45;66.64
70421;SHT31;57848;51.938;15.520;2022-09-09T13:39:29;22.31;66.70
70421;SHT31;57848;51.938;15.520;2022-09-09T13:41:54;22.25;67.59
70421;SHT31;57848;51.938;15.520;2022-09-09T13:44:25;22.23;68.29
70421;SHT31;57848;51.938;15.520;2022-09-09T13:47:18;22.25;67.89
70421;SHT31;57848;51.938;15.520;2022-09-09T13:49:44;22.43;66.97
70421;SHT31;57848;51.938;15.520;2022-09-09T13:52:13;22.40;67.33
70421;SHT31;57848;51.938;15.520;2022-09-09T13:54:40;22.27;67.15
70421;SHT31;57848;51.938;15.520;2022-09-09T13:57:14;22.33;66.90
70421;SHT31;57848;51.938;15.520;2022-09-09T13:59:40;22.29;67.49
70421;SHT31;57848;51.938;15.520;2022-09-09T14:02:07;22.31;67.08
70421;SHT31;57848;51.938;15.520;2022-09-09T14:04:32;22.37;67.05
70421;SHT31;57848;51.938;15.520;2022-09-09T14:06:58;22.21;66.85
70421;SHT31;57848;51.938;15.520;2022-09-09T14:09:24;22.29;66.40
70421;SHT31;57848;51.938;15.520;2022-09-09T14:11:49;22.17;65.41
70421;SHT31;57848;51.938;15.520;2022-09-09T14:14:15;22.18;65.00
70421;SHT31;57848;51.938;15.520;2022-09-09T14:16:40;22.25;61.61
70421;SHT31;57848;51.938;15.520;2022-09-09T14:19:05;22.18;61.93
70421;SHT31;57848;51.938;15.520;2022-09-09T14:21:31;22.12;60.61
70421;SHT31;57848;51.938;15.520;2022-09-09T14:23:57;22.21;61.33
70421;SHT31;57848;51.938;15.520;2022-09-09T14:26:23;22.02;61.44
70421;SHT31;57848;51.938;15.520;2022-09-09T14:28:50;22.04;62.79
70421;SHT31;57848;51.938;15.520;2022-09-09T14:31:17;21.99;61.34
70421;SHT31;57848;51.938;15.520;2022-09-09T14:33:43;22.00;61.41
70421;SHT31;57848;51.938;15.520;2022-09-09T14:36:08;22.00;58.59
70421;SHT31;57848;51.938;15.520;2022-09-09T14:38:36;22.04;59.85
70421;SHT31;57848;51.938;15.520;2022-09-09T14:41:16;21.94;58.17
70421;SHT31;57848;51.938;15.520;2022-09-09T14:43:42;21.92;57.75
70421;SHT31;57848;51.938;15.520;2022-09-09T14:46:09;21.90;58.41
70421;SHT31;57848;51.938;15.520;2022-09-09T14:48:35;21.89;59.42
70421;SHT31;57848;51.938;15.520;2022-09-09T14:51:12;21.75;61.23
70421;SHT31;57848;51.938;15.520;2022-09-09T14:53:39;21.85;60.74
70421;SHT31;57848;51.938;15.520;2022-09-09T14:56:10;21.97;60.83
70421;SHT31;57848;51.938;15.520;2022-09-09T14:58:37;22.27;61.04
70421;SHT31;57848;51.938;15.520;2022-09-09T15:01:07;22.99;59.54
70421;SHT31;57848;51.938;15.520;2022-09-09T15:03:35;23.93;56.91
70421;SHT31;57848;51.938;15.520;2022-09-09T15:06:08;24.53;54.61
70421;SHT31;57848;51.938;15.520;2022-09-09T15:08:35;24.62;53.31
70421;SHT31;57848;51.938;15.520;2022-09-09T15:11:03;24.38;55.36
70421;SHT31;57848;51.938;15.520;2022-09-09T15:13:28;23.98;55.44
70421;SHT31;57848;51.938;15.520;2022-09-09T15:15:54;23.87;56.73
70421;SHT31;57848;51.938;15.520;2022-09-09T15:18:20;24.00;55.82
70421;SHT31;57848;51.938;15.520;2022-09-09T15:20:46;23.77;57.72
70421;SHT31;57848;51.938;15.520;2022-09-09T15:23:13;23.59;56.62
70421;SHT31;57848;51.938;15.520;2022-09-09T15:25:39;23.20;57.85
70421;SHT31;57848;51.938;15.520;2022-09-09T15:28:14;22.98;58.49
70421;SHT31;57848;51.938;15.520;2022-09-09T15:30:39;22.79;58.61
70421;SHT31;57848;51.938;15.520;2022-09-09T15:33:08;22.85;58.40
70421;SHT31;57848;51.938;15.520;2022-09-09T15:35:33;22.61;59.62
70421;SHT31;57848;51.938;15.520;2022-09-09T15:38:02;22.61;60.51
70421;SHT31;57848;51.938;15.520;2022-09-09T15:40:27;22.82;60.23
70421;SHT31;57848;51.938;15.520;2022-09-09T15:42:52;22.75;60.86
70421;SHT31;57848;51.938;15.520;2022-09-09T15:45:18;22.58;62.21
70421;SHT31;57848;51.938;15.520;2022-09-09T15:47:43;22.34;63.00
70421;SHT31;57848;51.938;15.520;2022-09-09T15:50:08;22.27;62.88
70421;SHT31;57848;51.938;15.520;2022-09-09T15:52:34;22.24;62.54
70421;SHT31;57848;51.938;15.520;2022-09-09T15:54:59;22.13;63.21
70421;SHT31;57848;51.938;15.520;2022-09-09T15:57:25;22.03;64.12
70421;SHT31;57848;51.938;15.520;2022-09-09T15:59:51;21.83;65.00
70421;SHT31;57848;51.938;15.520;2022-09-09T16:02:16;21.69;65.97
70421;SHT31;57848;51.938;15.520;2022-09-09T16:04:43;21.52;66.62
70421;SHT31;57848;51.938;15.520;2022-09-09T16:07:08;21.49;66.52
70421;SHT31;57848;51.938;15.520;2022-09-09T16:09:34;21.46;65.89
70421;SHT31;57848;51.938;15.520;2022-09-09T16:12:01;21.37;65.72
70421;SHT31;57848;51.938;15.520;2022-09-09T16:14:27;21.28;65.04
70421;SHT31;57848;51.938;15.520;2022-09-09T16:16:53;21.18;64.85
70421;SHT31;57848;51.938;15.520;2022-09-09T16:19:18;21.25;65.23
70421;SHT31;57848;51.938;15.520;2022-09-09T16:21:48;21.28;63.02
70421;SHT31;57848;51.938;15.520;2022-09-09T16:24:16;21.24;63.15
70421;SHT31;57848;51.938;15.520;2022-09-09T16:26:44;21.17;63.66
70421;SHT31;57848;51.938;15.520;2022-09-09T16:29:12;21.10;63.74
70421;SHT31;57848;51.938;15.520;2022-09-09T16:31:37;20.97;62.67
70421;SHT31;57848;51.938;15.520;2022-09-09T16:34:03;20.95;62.76
70421;SHT31;57848;51.938;15.520;2022-09-09T16:36:30;20.93;63.65
70421;SHT31;57848;51.938;15.520;2022-09-09T16:39:01;20.86;63.71